sensor_id;sensor_type;location;lat;lon;timestamp;pressure;altitude;pressure_sealevel;temperature;humidity
16613;BME280;8419;52.358;9.752;2023-04-20T00:02:21;101422.00;;;18.55;28.91
16613;BME280;8419;52.358;9.752;2023-04-20T00:05:09;101431.00;;;18.45;29.13
16613;BME280;8419;52.358;9.752;2023-04-20T00:07:55;101421.00;;;18.42;29.26
16613;BME280;8419;52.358;9.752;2023-04-20T00:10:43;101419.00;;;18.33;29.42
16613;BME280;8419;52.358;9.752;2023-04-20T00:13:29;101419.00;;;18.30;29.64
16613;BME280;8419;52.358;9.752;2023-04-20T00:16:14;101417.00;;;18.32;29.54
16613;BME280;8419;52.358;9.752;2023-04-20T00:19:00;101419.00;;;18.24;29.65
16613;BME280;8419;52.358;9.752;2023-04-20T00:21:46;101415.00;;;18.15;29.83
16613;BME280;8419;52.358;9.752;2023-04-20T00:24:31;101406.00;;;18.11;29.94
16613;BME280;8419;52.358;9.752;2023-04-20T00:27:17;101410.00;;;18.22;29.78
16613;BME280;8419;52.358;9.752;2023-04-20T00:30:04;101411.00;;;18.17;29.89
16613;BME280;8419;52.358;9.752;2023-04-20T00:32:50;101399.00;;;18.21;29.89
16613;BME280;8419;52.358;9.752;2023-04-20T00:35:35;101400.00;;;18.24;29.81
16613;BME280;8419;52.358;9.752;2023-04-20T00:38:21;101395.00;;;18.11;30.01
16613;BME280;8419;52.358;9.752;2023-04-20T00:41:06;101400.00;;;18.22;29.88
16613;BME280;8419;52.358;9.752;2023-04-20T00:43:54;101393.00;;;18.21;29.91
16613;BME280;8419;52.358;9.752;2023-04-20T00:46:39;101402.00;;;18.18;29.97
16613;BME280;8419;52.358;9.752;2023-04-20T00:49:26;101392.00;;;18.12;29.98
16613;BME280;8419;52.358;9.752;2023-04-20T00:52:15;101387.00;;;18.12;29.98
16613;BME280;8419;52.358;9.752;2023-04-20T00:55:01;101394.00;;;17.96;30.22
16613;BME280;8419;52.358;9.752;2023-04-20T00:57:49;101398.00;;;17.92;30.32
16613;BME280;8419;52.358;9.752;2023-04-20T01:00:37;101384.00;;;18.03;30.24
16613;BME280;8419;52.358;9.752;2023-04-20T01:03:23;101388.00;;;18.11;30.12
16613;BME280;8419;52.358;9.752;2023-04-20T01:06:09;101384.00;;;18.09;30.11
16613;BME280;8419;52.358;9.752;2023-04-20T01:08:54;101384.00;;;18.12;30.14
16613;BME280;8419;52.358;9.752;2023-04-20T01:11:41;101379.00;;;18.16;30.09
16613;BME280;8419;52.358;9.752;2023-04-20T01:14:27;101374.00;;;18.14;30.17
16613;BME280;8419;52.358;9.752;2023-04-20T01:17:12;101361.00;;;18.02;30.32
16613;BME280;8419;52.358;9.752;2023-04-20T01:20:01;101361.00;;;17.99;30.41
16613;BME280;8419;52.358;9.752;2023-04-20T01:22:49;101358.00;;;18.03;30.43
16613;BME280;8419;52.358;9.752;2023-04-20T01:25:34;101357.00;;;18.09;30.35
16613;BME280;8419;52.358;9.752;2023-04-20T01:28:20;101357.00;;;18.09;30.31
16613;BME280;8419;52.358;9.752;2023-04-20T01:31:10;101362.00;;;18.01;30.46
16613;BME280;8419;52.358;9.752;2023-04-20T01:33:56;101354.00;;;18.13;30.39
16613;BME280;8419;52.358;9.752;2023-04-20T01:36:44;101353.00;;;18.04;30.54
16613;BME280;8419;52.358;9.752;2023-04-20T01:39:29;101343.00;;;18.06;30.52
16613;BME280;8419;52.358;9.752;2023-04-20T01:42:15;101342.00;;;17.98;30.62
16613;BME280;8419;52.358;9.752;2023-04-20T01:45:00;101339.00;;;17.92;30.70
16613;BME280;8419;52.358;9.752;2023-04-20T01:47:47;101331.00;;;17.92;30.75
16613;BME280;8419;52.358;9.752;2023-04-20T01:50:35;101332.00;;;17.94;30.78
16613;BME280;8419;52.358;9.752;2023-04-20T01:53:22;101318.00;;;18.04;30.64
16613;BME280;8419;52.358;9.752;2023-04-20T01:56:09;101322.00;;;18.04;30.63
16613;BME280;8419;52.358;9.752;2023-04-20T01:58:55;101315.00;;;17.86;30.97
16613;BME280;8419;52.358;9.752;2023-04-20T02:01:40;101314.00;;;17.71;31.22
16613;BME280;8419;52.358;9.752;2023-04-20T02:04:26;101305.00;;;17.63;31.35
16613;BME280;8419;52.358;9.752;2023-04-20T02:07:11;101314.00;;;17.58;31.43
16613;BME280;8419;52.358;9.752;2023-04-20T02:09:57;101309.00;;;17.54;31.50
16613;BME280;8419;52.358;9.752;2023-04-20T02:12:43;101311.00;;;17.47;31.69
16613;BME280;8419;52.358;9.752;2023-04-20T02:15:30;101322.00;;;17.30;31.93
16613;BME280;8419;52.358;9.752;2023-04-20T02:18:17;101313.00;;;17.38;31.85
16613;BME280;8419;52.358;9.752;2023-04-20T02:21:05;101316.00;;;17.35;31.94
16613;BME280;8419;52.358;9.752;2023-04-20T02:23:50;101308.00;;;17.36;32.08
16613;BME280;8419;52.358;9.752;2023-04-20T02:26:35;101313.00;;;17.35;32.02
16613;BME280;8419;52.358;9.752;2023-04-20T02:29:22;101310.00;;;17.40;31.98
16613;BME280;8419;52.358;9.752;2023-04-20T02:32:07;101308.00;;;17.32;32.11
16613;BME280;8419;52.358;9.752;2023-04-20T02:34:54;101306.00;;;17.39;31.98
16613;BME280;8419;52.358;9.752;2023-04-20T02:37:39;101305.00;;;17.29;32.17
16613;BME280;8419;52.358;9.752;2023-04-20T02:40:24;101303.00;;;17.39;32.02
16613;BME280;8419;52.358;9.752;2023-04-20T02:43:10;101312.00;;;17.41;32.09
16613;BME280;8419;52.358;9.752;2023-04-20T02:45:57;101305.00;;;17.53;31.92
16613;BME280;8419;52.358;9.752;2023-04-20T02:48:42;101303.00;;;17.69;31.70
16613;BME280;8419;52.358;9.752;2023-04-20T02:51:28;101312.00;;;17.54;31.90
16613;BME280;8419;52.358;9.752;2023-04-20T02:54:16;101310.00;;;17.38;32.17
16613;BME280;8419;52.358;9.752;2023-04-20T02:57:02;101302.00;;;17.50;32.09
16613;BME280;8419;52.358;9.752;2023-04-20T02:59:48;101300.00;;;17.64;31.87
16613;BME280;8419;52.358;9.752;2023-04-20T03:02:33;101287.00;;;17.59;31.94
16613;BME280;8419;52.358;9.752;2023-04-20T03:05:19;101293.00;;;17.43;32.23
16613;BME280;8419;52.358;9.752;2023-04-20T03:08:05;101293.00;;;17.33;32.43
16613;BME280;8419;52.358;9.752;2023-04-20T03:10:51;101289.00;;;17.37;32.42
16613;BME280;8419;52.358;9.752;2023-04-20T03:13:36;101282.00;;;17.39;32.42
16613;BME280;8419;52.358;9.752;2023-04-20T03:16:22;101295.00;;;17.42;32.39
16613;BME280;8419;52.358;9.752;2023-04-20T03:19:07;101292.00;;;17.53;32.33
16613;BME280;8419;52.358;9.752;2023-04-20T03:21:53;101288.00;;;17.60;32.20
16613;BME280;8419;52.358;9.752;2023-04-20T03:24:38;101287.00;;;17.45;32.43
16613;BME280;8419;52.358;9.752;2023-04-20T03:27:23;101294.00;;;17.50;32.37
16613;BME280;8419;52.358;9.752;2023-04-20T03:30:11;101294.00;;;17.50;32.34
16613;BME280;8419;52.358;9.752;2023-04-20T03:32:59;101291.00;;;17.45;32.47
16613;BME280;8419;52.358;9.752;2023-04-20T03:35:44;101298.00;;;17.63;32.19
16613;BME280;8419;52.358;9.752;2023-04-20T03:38:30;101298.00;;;17.65;32.14
16613;BME280;8419;52.358;9.752;2023-04-20T03:41:15;101300.00;;;17.58;32.27
16613;BME280;8419;52.358;9.752;2023-04-20T03:44:01;101309.00;;;17.50;32.38
16613;BME280;8419;52.358;9.752;2023-04-20T03:46:47;101299.00;;;17.42;32.53
16613;BME280;8419;52.358;9.752;2023-04-20T03:49:33;101297.00;;;17.42;32.52
16613;BME280;8419;52.358;9.752;2023-04-20T03:52:19;101296.00;;;17.45;32.54
16613;BME280;8419;52.358;9.752;2023-04-20T03:55:07;101307.00;;;17.45;32.48
16613;BME280;8419;52.358;9.752;2023-04-20T03:57:53;101300.00;;;17.42;32.54
16613;BME280;8419;52.358;9.752;2023-04-20T04:00:40;101301.00;;;17.54;32.36
16613;BME280;8419;52.358;9.752;2023-04-20T04:03:25;101298.00;;;17.58;32.33
16613;BME280;8419;52.358;9.752;2023-04-20T04:06:11;101299.00;;;17.46;32.44
16613;BME280;8419;52.358;9.752;2023-04-20T04:08:56;101302.00;;;17.38;32.58
16613;BME280;8419;52.358;9.752;2023-04-20T04:11:41;101298.00;;;17.49;32.48
16613;BME280;8419;52.358;9.752;2023-04-20T04:14:27;101304.00;;;17.58;32.34
16613;BME280;8419;52.358;9.752;2023-04-20T04:17:14;101306.00;;;17.58;32.37
16613;BME280;8419;52.358;9.752;2023-04-20T04:20:00;101301.00;;;17.57;32.38
16613;BME280;8419;52.358;9.752;2023-04-20T04:22:47;101295.00;;;17.48;32.55
16613;BME280;8419;52.358;9.752;2023-04-20T04:25:36;101301.00;;;17.53;32.50
16613;BME280;8419;52.358;9.752;2023-04-20T04:28:22;101310.00;;;17.69;32.43
16613;BME280;8419;52.358;9.752;2023-04-20T04:31:08;101304.00;;;17.51;32.67
16613;BME280;8419;52.358;9.752;2023-04-20T04:33:54;101301.00;;;17.54;32.71
16613;BME280;8419;52.358;9.752;2023-04-20T04:36:40;101301.00;;;17.60;32.65
16613;BME280;8419;52.358;9.752;2023-04-20T04:39:26;101296.00;;;17.54;32.98
16613;BME280;8419;52.358;9.752;2023-04-20T04:42:12;101307.00;;;17.74;32.90
16613;BME280;8419;52.358;9.752;2023-04-20T04:44:57;101295.00;;;17.78;32.81
16613;BME280;8419;52.358;9.752;2023-04-20T04:47:46;101299.00;;;17.68;32.99
16613;BME280;8419;52.358;9.752;2023-04-20T04:50:31;101295.00;;;17.68;32.97
16613;BME280;8419;52.358;9.752;2023-04-20T04:53:18;101295.00;;;17.66;32.98
16613;BME280;8419;52.358;9.752;2023-04-20T04:56:06;101296.00;;;17.67;33.05
16613;BME280;8419;52.358;9.752;2023-04-20T04:58:51;101295.00;;;17.69;33.07
16613;BME280;8419;52.358;9.752;2023-04-20T05:01:37;101302.00;;;17.73;33.00
16613;BME280;8419;52.358;9.752;2023-04-20T05:04:22;101311.00;;;17.66;33.13
16613;BME280;8419;52.358;9.752;2023-04-20T05:07:07;101308.00;;;17.73;33.09
16613;BME280;8419;52.358;9.752;2023-04-20T05:09:54;101302.00;;;17.76;33.06
16613;BME280;8419;52.358;9.752;2023-04-20T05:12:39;101306.00;;;17.87;32.90
16613;BME280;8419;52.358;9.752;2023-04-20T05:15:27;101315.00;;;17.92;32.85
16613;BME280;8419;52.358;9.752;2023-04-20T05:18:12;101312.00;;;17.79;33.09
16613;BME280;8419;52.358;9.752;2023-04-20T05:20:58;101317.00;;;17.80;33.09
16613;BME280;8419;52.358;9.752;2023-04-20T05:23:45;101314.00;;;17.87;33.03
16613;BME280;8419;52.358;9.752;2023-04-20T05:29:18;101327.00;;;17.85;33.14
16613;BME280;8419;52.358;9.752;2023-04-20T05:32:05;101320.00;;;17.84;33.14
16613;BME280;8419;52.358;9.752;2023-04-20T05:34:54;101317.00;;;17.89;33.14
16613;BME280;8419;52.358;9.752;2023-04-20T05:37:40;101316.00;;;17.85;33.20
16613;BME280;8419;52.358;9.752;2023-04-20T05:40:25;101324.00;;;17.96;33.08
16613;BME280;8419;52.358;9.752;2023-04-20T05:43:11;101332.00;;;18.05;32.93
16613;BME280;8419;52.358;9.752;2023-04-20T05:45:56;101328.00;;;17.93;33.19
16613;BME280;8419;52.358;9.752;2023-04-20T05:48:42;101333.00;;;18.07;32.97
16613;BME280;8419;52.358;9.752;2023-04-20T05:51:28;101337.00;;;18.10;32.96
16613;BME280;8419;52.358;9.752;2023-04-20T05:54:17;101343.00;;;18.16;32.89
16613;BME280;8419;52.358;9.752;2023-04-20T05:57:04;101338.00;;;18.13;32.91
16613;BME280;8419;52.358;9.752;2023-04-20T05:59:51;101348.00;;;18.13;32.97
16613;BME280;8419;52.358;9.752;2023-04-20T06:02:44;101342.00;;;18.19;32.93
16613;BME280;8419;52.358;9.752;2023-04-20T06:05:55;101339.00;;;18.27;32.94
16613;BME280;8419;52.358;9.752;2023-04-20T06:08:41;101343.00;;;18.34;32.76
16613;BME280;8419;52.358;9.752;2023-04-20T06:11:26;101346.00;;;18.39;32.79
16613;BME280;8419;52.358;9.752;2023-04-20T06:14:12;101340.00;;;18.45;32.72
16613;BME280;8419;52.358;9.752;2023-04-20T06:16:58;101341.00;;;18.44;32.76
16613;BME280;8419;52.358;9.752;2023-04-20T06:19:44;101345.00;;;18.46;32.76
16613;BME280;8419;52.358;9.752;2023-04-20T06:22:31;101326.00;;;18.52;32.72
16613;BME280;8419;52.358;9.752;2023-04-20T06:25:17;101332.00;;;18.64;32.66
16613;BME280;8419;52.358;9.752;2023-04-20T06:28:02;101326.00;;;18.67;32.69
16613;BME280;8419;52.358;9.752;2023-04-20T06:30:48;101326.00;;;18.73;32.64
16613;BME280;8419;52.358;9.752;2023-04-20T06:33:33;101333.00;;;18.85;32.52
16613;BME280;8419;52.358;9.752;2023-04-20T06:36:19;101328.00;;;19.09;32.19
16613;BME280;8419;52.358;9.752;2023-04-20T06:39:05;101329.00;;;19.01;32.29
16613;BME280;8419;52.358;9.752;2023-04-20T06:41:50;101338.00;;;18.99;32.38
16613;BME280;8419;52.358;9.752;2023-04-20T06:44:35;101339.00;;;18.98;32.42
16613;BME280;8419;52.358;9.752;2023-04-20T06:47:21;101335.00;;;19.02;32.34
16613;BME280;8419;52.358;9.752;2023-04-20T06:50:09;101340.00;;;18.97;32.39
16613;BME280;8419;52.358;9.752;2023-04-20T06:52:55;101336.00;;;18.84;32.57
16613;BME280;8419;52.358;9.752;2023-04-20T06:55:40;101342.00;;;18.75;32.67
16613;BME280;8419;52.358;9.752;2023-04-20T06:58:26;101336.00;;;18.76;32.77
16613;BME280;8419;52.358;9.752;2023-04-20T07:01:12;101336.00;;;18.98;32.59
16613;BME280;8419;52.358;9.752;2023-04-20T07:03:58;101341.00;;;19.20;32.30
16613;BME280;8419;52.358;9.752;2023-04-20T07:06:45;101337.00;;;19.30;32.21
16613;BME280;8419;52.358;9.752;2023-04-20T07:09:30;101343.00;;;19.18;32.45
16613;BME280;8419;52.358;9.752;2023-04-20T07:12:17;101341.00;;;19.37;32.18
16613;BME280;8419;52.358;9.752;2023-04-20T07:15:11;101353.00;;;19.53;32.03
16613;BME280;8419;52.358;9.752;2023-04-20T07:17:57;101341.00;;;19.46;32.05
16613;BME280;8419;52.358;9.752;2023-04-20T07:20:42;101348.00;;;19.30;32.21
16613;BME280;8419;52.358;9.752;2023-04-20T07:23:28;101346.00;;;19.20;32.33
16613;BME280;8419;52.358;9.752;2023-04-20T07:26:13;101348.00;;;19.15;32.36
16613;BME280;8419;52.358;9.752;2023-04-20T07:28:59;101348.00;;;19.21;32.22
16613;BME280;8419;52.358;9.752;2023-04-20T07:31:45;101338.00;;;19.22;32.14
16613;BME280;8419;52.358;9.752;2023-04-20T07:34:42;101343.00;;;19.04;32.32
16613;BME280;8419;52.358;9.752;2023-04-20T07:37:29;101345.00;;;19.07;32.26
16613;BME280;8419;52.358;9.752;2023-04-20T07:40:15;101354.00;;;19.16;32.04
16613;BME280;8419;52.358;9.752;2023-04-20T07:43:01;101356.00;;;19.30;31.86
16613;BME280;8419;52.358;9.752;2023-04-20T07:45:47;101353.00;;;19.49;31.60
16613;BME280;8419;52.358;9.752;2023-04-20T07:48:35;101358.00;;;19.65;31.43
16613;BME280;8419;52.358;9.752;2023-04-20T07:51:20;101362.00;;;19.77;31.38
16613;BME280;8419;52.358;9.752;2023-04-20T07:54:06;101351.00;;;19.99;31.15
16613;BME280;8419;52.358;9.752;2023-04-20T07:56:52;101359.00;;;20.09;31.01
16613;BME280;8419;52.358;9.752;2023-04-20T07:59:41;101359.00;;;20.06;31.00
16613;BME280;8419;52.358;9.752;2023-04-20T08:02:31;101362.00;;;19.93;31.12
16613;BME280;8419;52.358;9.752;2023-04-20T08:05:18;101354.00;;;19.87;31.12
16613;BME280;8419;52.358;9.752;2023-04-20T08:08:05;101354.00;;;19.75;31.18
16613;BME280;8419;52.358;9.752;2023-04-20T08:10:50;101359.00;;;19.78;31.10
16613;BME280;8419;52.358;9.752;2023-04-20T08:13:36;101364.00;;;19.76;31.10
16613;BME280;8419;52.358;9.752;2023-04-20T08:16:21;101361.00;;;19.85;30.96
16613;BME280;8419;52.358;9.752;2023-04-20T08:19:07;101357.00;;;20.08;30.62
16613;BME280;8419;52.358;9.752;2023-04-20T08:21:54;101359.00;;;20.36;30.27
16613;BME280;8419;52.358;9.752;2023-04-20T08:24:40;101369.00;;;20.50;30.03
16613;BME280;8419;52.358;9.752;2023-04-20T08:27:25;101372.00;;;20.45;30.03
16613;BME280;8419;52.358;9.752;2023-04-20T08:30:13;101369.00;;;20.37;29.97
16613;BME280;8419;52.358;9.752;2023-04-20T08:33:01;101365.00;;;20.30;29.90
16613;BME280;8419;52.358;9.752;2023-04-20T08:35:49;101368.00;;;20.38;29.72
16613;BME280;8419;52.358;9.752;2023-04-20T08:38:35;101372.00;;;20.26;29.79
16613;BME280;8419;52.358;9.752;2023-04-20T08:41:21;101364.00;;;20.23;29.87
16613;BME280;8419;52.358;9.752;2023-04-20T08:44:08;101368.00;;;20.39;29.52
16613;BME280;8419;52.358;9.752;2023-04-20T08:46:55;101373.00;;;20.36;29.50
16613;BME280;8419;52.358;9.752;2023-04-20T08:49:44;101375.00;;;20.61;29.21
16613;BME280;8419;52.358;9.752;2023-04-20T08:52:35;101378.00;;;20.88;28.87
16613;BME280;8419;52.358;9.752;2023-04-20T08:55:23;101371.00;;;21.10;28.59
16613;BME280;8419;52.358;9.752;2023-04-20T08:58:08;101365.00;;;21.13;28.52
16613;BME280;8419;52.358;9.752;2023-04-20T09:00:55;101369.00;;;21.37;28.24
16613;BME280;8419;52.358;9.752;2023-04-20T09:03:45;101360.00;;;21.35;28.25
16613;BME280;8419;52.358;9.752;2023-04-20T09:06:31;101361.00;;;21.52;28.04
16613;BME280;8419;52.358;9.752;2023-04-20T09:09:19;101354.00;;;21.73;27.81
16613;BME280;8419;52.358;9.752;2023-04-20T09:12:07;101360.00;;;21.85;27.73
16613;BME280;8419;52.358;9.752;2023-04-20T09:14:54;101368.00;;;22.04;27.51
16613;BME280;8419;52.358;9.752;2023-04-20T09:17:40;101364.00;;;22.37;27.12
16613;BME280;8419;52.358;9.752;2023-04-20T09:20:31;101366.00;;;22.44;27.00
16613;BME280;8419;52.358;9.752;2023-04-20T09:23:18;101361.00;;;22.48;26.95
16613;BME280;8419;52.358;9.752;2023-04-20T09:26:04;101378.00;;;22.48;26.95
16613;BME280;8419;52.358;9.752;2023-04-20T09:28:51;101375.00;;;22.75;26.63
16613;BME280;8419;52.358;9.752;2023-04-20T09:31:36;101369.00;;;22.72;26.58
16613;BME280;8419;52.358;9.752;2023-04-20T09:34:24;101378.00;;;22.66;26.47
16613;BME280;8419;52.358;9.752;2023-04-20T09:37:14;101373.00;;;22.56;26.42
16613;BME280;8419;52.358;9.752;2023-04-20T09:39:59;101375.00;;;22.61;26.25
16613;BME280;8419;52.358;9.752;2023-04-20T09:42:48;101374.00;;;22.49;26.25
16613;BME280;8419;52.358;9.752;2023-04-20T09:45:34;101378.00;;;22.51;26.12
16613;BME280;8419;52.358;9.752;2023-04-20T09:48:20;101363.00;;;22.52;26.09
16613;BME280;8419;52.358;9.752;2023-04-20T09:51:06;101368.00;;;22.59;25.93
16613;BME280;8419;52.358;9.752;2023-04-20T09:53:53;101374.00;;;22.84;25.51
16613;BME280;8419;52.358;9.752;2023-04-20T09:56:39;101372.00;;;22.78;25.42
16613;BME280;8419;52.358;9.752;2023-04-20T09:59:25;101372.00;;;22.54;25.62
16613;BME280;8419;52.358;9.752;2023-04-20T10:02:12;101366.00;;;22.52;25.58
16613;BME280;8419;52.358;9.752;2023-04-20T10:04:59;101362.00;;;22.74;25.30
16613;BME280;8419;52.358;9.752;2023-04-20T10:07:45;101359.00;;;22.88;25.12
16613;BME280;8419;52.358;9.752;2023-04-20T10:10:41;101375.00;;;22.94;24.96
16613;BME280;8419;52.358;9.752;2023-04-20T10:13:33;101367.00;;;23.03;24.80
16613;BME280;8419;52.358;9.752;2023-04-20T10:16:20;101372.00;;;23.15;24.68
16613;BME280;8419;52.358;9.752;2023-04-20T10:19:05;101368.00;;;23.16;24.73
16613;BME280;8419;52.358;9.752;2023-04-20T10:21:51;101374.00;;;23.15;24.75
16613;BME280;8419;52.358;9.752;2023-04-20T10:24:37;101382.00;;;23.31;24.60
16613;BME280;8419;52.358;9.752;2023-04-20T10:27:23;101383.00;;;23.49;24.38
16613;BME280;8419;52.358;9.752;2023-04-20T10:30:11;101388.00;;;23.57;24.24
16613;BME280;8419;52.358;9.752;2023-04-20T10:33:05;101381.00;;;23.58;24.19
16613;BME280;8419;52.358;9.752;2023-04-20T10:35:52;101376.00;;;23.64;24.12
16613;BME280;8419;52.358;9.752;2023-04-20T10:38:39;101372.00;;;23.38;24.36
16613;BME280;8419;52.358;9.752;2023-04-20T10:41:25;101376.00;;;23.24;24.44
16613;BME280;8419;52.358;9.752;2023-04-20T10:44:12;101363.00;;;23.18;24.32
16613;BME280;8419;52.358;9.752;2023-04-20T10:46:57;101361.00;;;23.18;24.26
16613;BME280;8419;52.358;9.752;2023-04-20T10:49:43;101358.00;;;23.29;24.15
16613;BME280;8419;52.358;9.752;2023-04-20T10:52:32;101365.00;;;23.53;23.92
16613;BME280;8419;52.358;9.752;2023-04-20T10:55:19;101359.00;;;23.59;23.76
16613;BME280;8419;52.358;9.752;2023-04-20T10:58:05;101358.00;;;23.55;23.84
16613;BME280;8419;52.358;9.752;2023-04-20T11:00:58;101355.00;;;23.64;23.70
16613;BME280;8419;52.358;9.752;2023-04-20T11:03:49;101356.00;;;23.87;23.50
16613;BME280;8419;52.358;9.752;2023-04-20T11:06:35;101363.00;;;23.84;23.55
16613;BME280;8419;52.358;9.752;2023-04-20T11:09:24;101368.00;;;23.84;23.45
16613;BME280;8419;52.358;9.752;2023-04-20T11:12:12;101378.00;;;23.57;23.73
16613;BME280;8419;52.358;9.752;2023-04-20T11:15:00;101375.00;;;23.64;23.72
16613;BME280;8419;52.358;9.752;2023-04-20T11:17:47;101370.00;;;23.76;23.63
16613;BME280;8419;52.358;9.752;2023-04-20T11:20:32;101351.00;;;24.13;23.26
16613;BME280;8419;52.358;9.752;2023-04-20T11:23:19;101357.00;;;24.41;23.05
16613;BME280;8419;52.358;9.752;2023-04-20T11:26:06;101348.00;;;24.65;22.78
16613;BME280;8419;52.358;9.752;2023-04-20T11:28:55;101348.00;;;24.87;22.47
16613;BME280;8419;52.358;9.752;2023-04-20T11:31:50;101342.00;;;25.00;22.25
16613;BME280;8419;52.358;9.752;2023-04-20T11:34:39;101339.00;;;24.82;22.38
16613;BME280;8419;52.358;9.752;2023-04-20T11:37:25;101343.00;;;24.52;22.70
16613;BME280;8419;52.358;9.752;2023-04-20T11:40:13;101337.00;;;24.58;22.72
16613;BME280;8419;52.358;9.752;2023-04-20T11:42:59;101330.00;;;24.64;22.50
16613;BME280;8419;52.358;9.752;2023-04-20T11:45:45;101331.00;;;24.51;22.53
16613;BME280;8419;52.358;9.752;2023-04-20T11:48:32;101326.00;;;24.71;22.29
16613;BME280;8419;52.358;9.752;2023-04-20T11:51:19;101322.00;;;24.65;22.38
16613;BME280;8419;52.358;9.752;2023-04-20T11:54:05;101319.00;;;24.86;22.26
16613;BME280;8419;52.358;9.752;2023-04-20T11:56:51;101313.00;;;25.28;21.93
16613;BME280;8419;52.358;9.752;2023-04-20T11:59:37;101307.00;;;25.42;21.81
16613;BME280;8419;52.358;9.752;2023-04-20T12:02:22;101309.00;;;25.22;22.01
16613;BME280;8419;52.358;9.752;2023-04-20T12:05:08;101312.00;;;24.92;22.25
16613;BME280;8419;52.358;9.752;2023-04-20T12:07:56;101297.00;;;24.81;22.26
16613;BME280;8419;52.358;9.752;2023-04-20T12:10:42;101305.00;;;24.62;22.39
16613;BME280;8419;52.358;9.752;2023-04-20T12:13:27;101303.00;;;24.33;22.61
16613;BME280;8419;52.358;9.752;2023-04-20T12:16:13;101307.00;;;24.21;22.71
16613;BME280;8419;52.358;9.752;2023-04-20T12:19:01;101311.00;;;24.17;22.75
16613;BME280;8419;52.358;9.752;2023-04-20T12:21:47;101300.00;;;24.30;22.66
16613;BME280;8419;52.358;9.752;2023-04-20T12:24:33;101295.00;;;24.75;22.24
16613;BME280;8419;52.358;9.752;2023-04-20T12:27:18;101292.00;;;25.13;22.07
16613;BME280;8419;52.358;9.752;2023-04-20T12:30:08;101279.00;;;26.27;21.16
16613;BME280;8419;52.358;9.752;2023-04-20T12:32:55;101269.00;;;27.43;20.31
16613;BME280;8419;52.358;9.752;2023-04-20T12:35:40;101280.00;;;28.29;19.63
16613;BME280;8419;52.358;9.752;2023-04-20T12:38:29;101284.00;;;28.86;19.25
16613;BME280;8419;52.358;9.752;2023-04-20T12:41:15;101272.00;;;29.49;18.80
16613;BME280;8419;52.358;9.752;2023-04-20T12:44:01;101265.00;;;29.63;18.63
16613;BME280;8419;52.358;9.752;2023-04-20T12:46:46;101266.00;;;29.74;18.56
16613;BME280;8419;52.358;9.752;2023-04-20T12:49:32;101267.00;;;30.64;17.91
16613;BME280;8419;52.358;9.752;2023-04-20T12:52:18;101267.00;;;30.87;17.64
16613;BME280;8419;52.358;9.752;2023-04-20T12:55:04;101263.00;;;30.79;17.69
16613;BME280;8419;52.358;9.752;2023-04-20T12:57:51;101254.00;;;30.28;17.96
16613;BME280;8419;52.358;9.752;2023-04-20T13:00:36;101257.00;;;30.27;18.02
16613;BME280;8419;52.358;9.752;2023-04-20T13:03:22;101264.00;;;30.97;17.41
16613;BME280;8419;52.358;9.752;2023-04-20T13:06:12;101261.00;;;30.74;17.49
16613;BME280;8419;52.358;9.752;2023-04-20T13:08:59;101262.00;;;30.25;17.74
16613;BME280;8419;52.358;9.752;2023-04-20T13:11:44;101260.00;;;29.68;18.11
16613;BME280;8419;52.358;9.752;2023-04-20T13:14:31;101270.00;;;29.56;18.08
16613;BME280;8419;52.358;9.752;2023-04-20T13:17:18;101262.00;;;29.45;18.08
16613;BME280;8419;52.358;9.752;2023-04-20T13:20:05;101275.00;;;28.87;18.36
16613;BME280;8419;52.358;9.752;2023-04-20T13:22:52;101277.00;;;28.24;18.68
16613;BME280;8419;52.358;9.752;2023-04-20T13:25:37;101276.00;;;27.97;18.83
16613;BME280;8419;52.358;9.752;2023-04-20T13:28:24;101272.00;;;27.82;18.94
16613;BME280;8419;52.358;9.752;2023-04-20T13:31:10;101272.00;;;27.73;18.88
16613;BME280;8419;52.358;9.752;2023-04-20T13:33:55;101262.00;;;27.54;18.92
16613;BME280;8419;52.358;9.752;2023-04-20T13:36:44;101265.00;;;27.22;19.13
16613;BME280;8419;52.358;9.752;2023-04-20T13:39:30;101261.00;;;26.92;19.31
16613;BME280;8419;52.358;9.752;2023-04-20T13:42:17;101268.00;;;26.72;19.46
16613;BME280;8419;52.358;9.752;2023-04-20T13:45:11;101258.00;;;26.29;19.84
16613;BME280;8419;52.358;9.752;2023-04-20T13:47:56;101255.00;;;25.84;20.25
16613;BME280;8419;52.358;9.752;2023-04-20T13:53:48;101252.00;;;25.11;20.89
16613;BME280;8419;52.358;9.752;2023-04-20T13:56:33;101248.00;;;24.79;21.17
16613;BME280;8419;52.358;9.752;2023-04-20T13:59:19;101244.00;;;24.58;21.36
16613;BME280;8419;52.358;9.752;2023-04-20T14:02:05;101234.00;;;24.42;21.52
16613;BME280;8419;52.358;9.752;2023-04-20T14:04:51;101237.00;;;24.38;21.61
16613;BME280;8419;52.358;9.752;2023-04-20T14:07:37;101237.00;;;24.28;21.74
16613;BME280;8419;52.358;9.752;2023-04-20T14:10:23;101234.00;;;24.20;21.89
16613;BME280;8419;52.358;9.752;2023-04-20T14:13:09;101233.00;;;24.15;22.02
16613;BME280;8419;52.358;9.752;2023-04-20T14:15:55;101230.00;;;24.01;22.26
16613;BME280;8419;52.358;9.752;2023-04-20T14:18:41;101229.00;;;23.97;22.54
16613;BME280;8419;52.358;9.752;2023-04-20T14:21:26;101231.00;;;24.09;22.61
16613;BME280;8419;52.358;9.752;2023-04-20T14:24:12;101228.00;;;24.03;22.94
16613;BME280;8419;52.358;9.752;2023-04-20T14:26:59;101233.00;;;23.91;23.37
16613;BME280;8419;52.358;9.752;2023-04-20T14:29:47;101228.00;;;23.64;23.77
16613;BME280;8419;52.358;9.752;2023-04-20T14:32:33;101234.00;;;23.45;24.02
16613;BME280;8419;52.358;9.752;2023-04-20T14:35:20;101224.00;;;23.38;24.16
16613;BME280;8419;52.358;9.752;2023-04-20T14:38:08;101232.00;;;23.40;24.05
16613;BME280;8419;52.358;9.752;2023-04-20T14:40:57;101229.00;;;23.18;24.19
16613;BME280;8419;52.358;9.752;2023-04-20T14:43:43;101224.00;;;23.01;24.29
16613;BME280;8419;52.358;9.752;2023-04-20T14:46:28;101228.00;;;23.03;24.27
16613;BME280;8419;52.358;9.752;2023-04-20T14:49:13;101221.00;;;22.83;24.46